Time;durP1;ratioP1;P1;durP2;ratioP2;P2;SDS_P1;SDS_P2;PMS_P1;PMS_P2;Temp;Humidity;BMP_temperature;BMP_pressure;BME280_temperature;BME280_humidity;BME280_pressure;Samples;Min_cycle;Max_cycle;Signal;HPM_P1;HPM_P2
2021/05/09 00:01:03;;;;;;;8.25;6.07;;;13.80;99.90;;;;;;4147099;28;20493;-78
2021/05/09 00:03:04;;;;;;;7.25;5.88;;;13.80;99.90;;;;;;4162037;28;20065;-77
2021/05/09 00:05:08;;;;;;;10.02;5.93;;;13.70;99.90;;;;;;4144823;28;20034;-77
2021/05/09 00:07:11;;;;;;;8.05;5.88;;;13.70;99.90;;;;;;4145335;28;20033;-79
2021/05/09 00:09:12;;;;;;;12.75;6.88;;;13.60;99.90;;;;;;4146784;28;20045;-80
2021/05/09 00:11:13;;;;;;;10.15;5.80;;;13.70;99.90;;;;;;4144885;28;20073;-78
2021/05/09 00:13:14;;;;;;;7.47;5.88;;;13.70;99.90;;;;;;4147391;28;20041;-79
2021/05/09 00:15:22;;;;;;;6.53;5.47;;;13.70;99.90;;;;;;4145901;28;20358;-80
2021/05/09 00:17:23;;;;;;;9.00;6.40;;;13.70;99.90;;;;;;4129501;28;20037;-79
2021/05/09 00:19:24;;;;;;;6.53;5.93;;;13.60;99.90;;;;;;4155472;28;20343;-79
2021/05/09 00:21:24;;;;;;;7.38;5.97;;;13.50;99.90;;;;;;4154011;28;20033;-78
2021/05/09 00:23:29;;;;;;;7.72;6.40;;;13.50;99.90;;;;;;4146544;28;20041;-79
2021/05/09 00:25:30;;;;;;;15.98;8.20;;;13.40;99.90;;;;;;4145369;28;20033;-78
2021/05/09 00:27:31;;;;;;;9.63;5.63;;;13.30;99.90;;;;;;4146757;28;20389;-78
2021/05/09 00:29:31;;;;;;;7.47;5.85;;;13.30;99.90;;;;;;4145202;28;20050;-79
2021/05/09 00:31:32;;;;;;;10.73;6.55;;;13.30;99.90;;;;;;4146789;28;20041;-79
2021/05/09 00:33:33;;;;;;;10.20;6.00;;;13.30;99.90;;;;;;4146836;28;20026;-79
2021/05/09 00:35:34;;;;;;;13.63;7.07;;;13.20;99.90;;;;;;4146959;28;20034;-78
2021/05/09 00:37:35;;;;;;;9.10;6.72;;;13.20;99.90;;;;;;4157298;28;20033;-78
2021/05/09 00:39:36;;;;;;;8.05;6.35;;;13.20;99.90;;;;;;4146697;28;20405;-78
2021/05/09 00:41:37;;;;;;;9.75;6.28;;;13.20;99.90;;;;;;4145186;28;20029;-80
2021/05/09 00:43:38;;;;;;;10.70;6.75;;;13.10;99.90;;;;;;4161684;28;20033;-79
2021/05/09 00:45:39;;;;;;;10.20;6.88;;;13.10;99.90;;;;;;4146563;28;20046;-79
2021/05/09 00:47:40;;;;;;;11.52;6.63;;;13.10;99.90;;;;;;4145576;28;21047;-78
2021/05/09 00:49:42;;;;;;;8.55;6.15;;;13.20;99.90;;;;;;4146437;28;20049;-77
2021/05/09 00:51:47;;;;;;;8.77;6.40;;;13.10;99.90;;;;;;4146750;28;20046;-79
2021/05/09 00:53:49;;;;;;;8.75;6.47;;;13.20;99.90;;;;;;4145143;28;20080;-79
2021/05/09 00:55:51;;;;;;;8.02;6.68;;;13.20;99.90;;;;;;4145192;28;20034;-79
2021/05/09 00:57:54;;;;;;;6.53;5.85;;;13.20;99.90;;;;;;4145494;28;20033;-79
2021/05/09 00:59:57;;;;;;;6.97;5.78;;;13.30;99.90;;;;;;4144599;28;20037;-79
2021/05/09 01:01:58;;;;;;;9.00;5.90;;;13.30;99.90;;;;;;4143876;28;20030;-78
2021/05/09 01:04:00;;;;;;;9.98;6.95;;;13.20;99.90;;;;;;4140695;28;20406;-77
2021/05/09 01:06:01;;;;;;;9.82;5.40;;;13.20;99.90;;;;;;4145254;28;20022;-78
2021/05/09 01:08:03;;;;;;;10.05;6.15;;;13.20;99.90;;;;;;4144020;28;20524;-76
2021/05/09 01:10:08;;;;;;;9.17;5.50;;;13.20;99.90;;;;;;4143995;28;20026;-77
2021/05/09 01:12:13;;;;;;;7.43;6.15;;;13.10;99.90;;;;;;4137744;28;20030;-77
2021/05/09 01:14:14;;;;;;;6.03;5.43;;;13.20;99.90;;;;;;4174158;28;20033;-78
2021/05/09 01:16:15;;;;;;;11.20;5.85;;;13.10;99.90;;;;;;4144194;28;20084;-78
2021/05/09 01:18:16;;;;;;;11.27;6.18;;;13.10;99.90;;;;;;4143061;28;20040;-77
2021/05/09 01:20:17;;;;;;;12.13;5.72;;;13.20;99.90;;;;;;4158980;28;20136;-78
2021/05/09 01:22:18;;;;;;;8.40;6.22;;;13.20;99.90;;;;;;4143087;28;20048;-77
2021/05/09 01:24:18;;;;;;;6.88;5.35;;;13.30;99.90;;;;;;4143106;28;20040;-77
2021/05/09 01:26:19;;;;;;;10.15;7.25;;;13.20;99.90;;;;;;4143733;28;20030;-78
2021/05/09 01:28:20;;;;;;;9.52;5.82;;;13.30;99.90;;;;;;4144975;28;20048;-78
2021/05/09 01:30:21;;;;;;;11.90;5.93;;;13.20;99.90;;;;;;4159644;28;20517;-76
2021/05/09 01:32:22;;;;;;;10.13;6.05;;;13.20;99.90;;;;;;4144770;28;20080;-78
2021/05/09 01:34:23;;;;;;;17.38;5.95;;;13.10;99.90;;;;;;4144717;28;20022;-78
2021/05/09 01:36:24;;;;;;;6.57;5.78;;;13.00;99.90;;;;;;4138089;28;20022;-77
2021/05/09 01:38:25;;;;;;;10.73;6.97;;;12.80;99.90;;;;;;4144246;28;20484;-78
2021/05/09 01:40:26;;;;;;;7.30;6.22;;;12.80;99.90;;;;;;4143658;28;20034;-78
2021/05/09 01:42:27;;;;;;;9.05;5.55;;;12.80;99.90;;;;;;4145589;28;20034;-78
2021/05/09 01:44:28;;;;;;;9.40;6.50;;;12.80;99.90;;;;;;4142641;28;20036;-79
2021/05/09 01:46:28;;;;;;;8.07;6.47;;;12.80;99.90;;;;;;4127456;28;20034;-77
2021/05/09 01:48:30;;;;;;;8.38;5.70;;;12.70;99.90;;;;;;4144873;28;20050;-78
2021/05/09 01:50:31;;;;;;;6.78;6.07;;;12.70;99.90;;;;;;4146412;28;20332;-79
2021/05/09 01:52:31;;;;;;;9.80;6.05;;;12.70;99.90;;;;;;4160027;28;20048;-78
2021/05/09 01:54:32;;;;;;;7.80;5.78;;;12.80;99.90;;;;;;4144755;28;20041;-79
2021/05/09 01:56:33;;;;;;;9.77;6.03;;;12.70;99.90;;;;;;4145511;28;20390;-78
2021/05/09 01:58:34;;;;;;;7.13;5.70;;;12.70;99.90;;;;;;4144603;28;20038;-78
2021/05/09 02:00:35;;;;;;;9.07;6.15;;;12.80;99.90;;;;;;4145142;28;20066;-78
2021/05/09 02:02:36;;;;;;;11.30;5.88;;;12.70;99.90;;;;;;4145757;28;20046;-78
2021/05/09 02:04:37;;;;;;;13.20;7.50;;;12.60;99.90;;;;;;4160629;28;20115;-78
2021/05/09 02:06:37;;;;;;;9.75;6.97;;;12.60;99.90;;;;;;4160639;28;20025;-78
2021/05/09 02:08:39;;;;;;;11.90;6.47;;;12.50;99.90;;;;;;4145428;28;20497;-78
2021/05/09 02:10:39;;;;;;;9.48;6.32;;;12.60;99.90;;;;;;4144205;28;20108;-79
2021/05/09 02:12:40;;;;;;;7.75;6.18;;;12.60;99.90;;;;;;4160541;28;20119;-78
2021/05/09 02:14:41;;;;;;;9.48;7.22;;;12.50;99.90;;;;;;4144688;28;20406;-78
2021/05/09 02:16:42;;;;;;;9.35;6.30;;;12.50;99.90;;;;;;4144226;28;20515;-79
2021/05/09 02:18:43;;;;;;;13.75;6.63;;;12.50;99.90;;;;;;4146758;28;20488;-78
2021/05/09 02:20:44;;;;;;;14.25;6.68;;;12.50;99.90;;;;;;4160356;28;20044;-78
2021/05/09 02:22:44;;;;;;;8.15;5.93;;;12.50;99.90;;;;;;4145826;28;20069;-78
2021/05/09 02:24:45;;;;;;;12.13;7.50;;;12.50;99.90;;;;;;4146851;28;20413;-79
2021/05/09 02:26:47;;;;;;;12.70;6.38;;;12.40;99.90;;;;;;4147282;28;20026;-78
2021/05/09 02:28:48;;;;;;;11.23;6.13;;;12.50;99.90;;;;;;4147103;28;20476;-77
2021/05/09 02:30:48;;;;;;;10.60;6.75;;;12.50;99.90;;;;;;4180015;28;20039;-77
2021/05/09 02:32:49;;;;;;;15.38;8.13;;;12.50;99.90;;;;;;4147361;28;20049;-78
2021/05/09 02:34:50;;;;;;;10.40;6.03;;;12.50;99.90;;;;;;4147086;28;20030;-78
2021/05/09 02:36:51;;;;;;;13.93;8.00;;;12.50;99.90;;;;;;4163835;28;20032;-78
2021/05/09 02:38:51;;;;;;;9.80;5.90;;;12.40;99.90;;;;;;4143268;28;20041;-78
2021/05/09 02:40:52;;;;;;;10.35;6.07;;;12.40;99.90;;;;;;4153335;28;20041;-80
2021/05/09 02:42:53;;;;;;;12.30;6.78;;;12.40;99.90;;;;;;4146979;28;20121;-78
2021/05/09 02:44:57;;;;;;;7.90;6.47;;;12.40;99.90;;;;;;4146497;28;20046;-78
2021/05/09 02:46:57;;;;;;;;;;;12.30;99.90;;;;;;4148920;28;20389;-77
2021/05/09 02:48:58;;;;;;;9.60;7.18;;;12.30;99.90;;;;;;4180019;28;19921;-79
2021/05/09 02:50:58;;;;;;;6.57;5.65;;;12.30;99.90;;;;;;4163636;28;20048;-79
2021/05/09 02:52:59;;;;;;;8.52;6.50;;;12.40;99.90;;;;;;4146998;28;20038;-78
2021/05/09 02:55:00;;;;;;;13.75;6.22;;;12.40;99.90;;;;;;4148428;28;20145;-79
2021/05/09 02:57:01;;;;;;;8.00;6.60;;;12.30;99.90;;;;;;4146661;28;20045;-78
2021/05/09 02:59:02;;;;;;;10.45;6.55;;;12.30;99.90;;;;;;4179699;28;20033;-78
2021/05/09 03:01:03;;;;;;;10.98;6.55;;;12.30;99.90;;;;;;4148335;28;20186;-78
2021/05/09 03:03:04;;;;;;;8.52;6.57;;;12.30;99.90;;;;;;4146900;28;20401;-78
2021/05/09 03:05:06;;;;;;;10.77;7.35;;;12.20;99.90;;;;;;4140213;28;20041;-78
2021/05/09 03:07:07;;;;;;;10.88;7.47;;;12.20;99.90;;;;;;4145397;28;20046;-78
2021/05/09 03:09:07;;;;;;;10.57;6.88;;;12.10;99.90;;;;;;4145520;28;20620;-78
2021/05/09 03:11:08;;;;;;;10.52;6.80;;;12.20;99.90;;;;;;4145426;28;20056;-78
2021/05/09 03:13:09;;;;;;;12.73;8.25;;;12.30;99.90;;;;;;4146763;28;20038;-79
2021/05/09 03:15:11;;;;;;;10.48;6.65;;;12.20;99.90;;;;;;4135149;28;20389;-78
2021/05/09 03:17:12;;;;;;;12.07;7.07;;;12.20;99.90;;;;;;4145904;28;20038;-78
2021/05/09 03:19:13;;;;;;;12.25;7.97;;;12.10;99.90;;;;;;4161823;28;20401;-78
2021/05/09 03:21:14;;;;;;;8.95;6.80;;;11.90;99.90;;;;;;4146896;28;20128;-78
2021/05/09 03:23:15;;;;;;;12.68;7.22;;;12.00;99.90;;;;;;4146019;28;20489;-78
2021/05/09 03:25:16;;;;;;;12.02;7.80;;;11.90;99.90;;;;;;4146546;28;20030;-78
2021/05/09 03:27:16;;;;;;;9.18;7.55;;;11.70;99.90;;;;;;4145669;28;20026;-78
2021/05/09 03:29:17;;;;;;;9.45;7.43;;;11.70;99.90;;;;;;4147331;28;20036;-78
2021/05/09 03:31:18;;;;;;;12.02;9.68;;;11.50;99.90;;;;;;4147030;28;20185;-77
2021/05/09 03:33:19;;;;;;;10.18;7.60;;;11.30;99.90;;;;;;4129525;28;20522;-79
2021/05/09 03:35:22;;;;;;;9.40;7.47;;;11.10;99.90;;;;;;4147140;28;20038;-77
2021/05/09 03:37:22;;;;;;;13.90;8.63;;;10.90;99.90;;;;;;4147036;28;20038;-76
2021/05/09 03:39:23;;;;;;;10.82;9.48;;;10.70;99.90;;;;;;4161665;28;20048;-77
2021/05/09 03:41:24;;;;;;;10.55;8.80;;;10.60;99.90;;;;;;4145856;28;20108;-77
2021/05/09 03:43:25;;;;;;;15.18;9.32;;;10.40;99.90;;;;;;4178963;28;20060;-79
2021/05/09 03:45:26;;;;;;;16.40;9.60;;;10.30;99.90;;;;;;4146721;28;20038;-78
2021/05/09 03:47:27;;;;;;;10.90;9.27;;;10.20;99.90;;;;;;4145696;28;20030;-78
2021/05/09 03:49:27;;;;;;;11.60;9.02;;;10.20;99.90;;;;;;4130033;28;20481;-77
2021/05/09 03:51:28;;;;;;;12.95;9.85;;;10.20;99.90;;;;;;4145338;28;20513;-78
2021/05/09 03:53:30;;;;;;;17.20;10.98;;;10.10;99.90;;;;;;4145870;28;20037;-78
2021/05/09 03:55:31;;;;;;;16.50;11.82;;;10.10;99.90;;;;;;4146560;28;20073;-78
2021/05/09 03:57:32;;;;;;;15.50;10.35;;;10.00;99.90;;;;;;4146106;28;20092;-78
2021/05/09 03:59:33;;;;;;;16.15;11.35;;;10.00;99.90;;;;;;4146207;28;20042;-78
2021/05/09 04:01:34;;;;;;;17.67;12.30;;;10.10;99.90;;;;;;4145569;28;20424;-78
2021/05/09 04:03:35;;;;;;;17.27;12.02;;;10.00;99.90;;;;;;4146087;28;20034;-78
2021/05/09 04:05:36;;;;;;;17.75;12.55;;;10.00;99.90;;;;;;4146243;28;20044;-78
2021/05/09 04:07:37;;;;;;;19.17;12.10;;;10.00;99.90;;;;;;4145656;28;20397;-78
2021/05/09 04:09:38;;;;;;;14.90;10.00;;;10.00;99.90;;;;;;4145768;28;20045;-78
2021/05/09 04:11:39;;;;;;;14.45;11.77;;;10.00;99.90;;;;;;4146932;28;20034;-78
2021/05/09 04:13:50;;;;;;;15.63;11.55;;;10.10;99.90;;;;;;4144955;28;20041;-78
2021/05/09 04:15:51;;;;;;;15.93;10.57;;;10.10;99.90;;;;;;4145925;28;20494;-79
2021/05/09 04:17:52;;;;;;;17.13;11.20;;;10.20;99.90;;;;;;4145519;28;20508;-78
2021/05/09 04:19:52;;;;;;;14.82;10.88;;;10.20;99.90;;;;;;4157505;28;20034;-78
2021/05/09 04:21:53;;;;;;;15.95;11.48;;;10.20;99.90;;;;;;4136477;28;20038;-78
2021/05/09 04:23:54;;;;;;;17.17;11.48;;;10.30;99.90;;;;;;4145287;28;20038;-79
2021/05/09 04:25:55;;;;;;;13.75;11.68;;;10.30;99.90;;;;;;4146403;28;20489;-78
2021/05/09 04:27:55;;;;;;;17.02;10.95;;;10.30;99.90;;;;;;4145074;28;20508;-78
2021/05/09 04:29:56;;;;;;;21.17;10.75;;;10.30;99.90;;;;;;4145500;28;20187;-78
2021/05/09 04:31:57;;;;;;;15.23;10.18;;;10.40;99.90;;;;;;4146575;28;20030;-79
2021/05/09 04:33:58;;;;;;;13.32;10.45;;;10.40;99.90;;;;;;4141781;28;20034;-79
2021/05/09 04:35:59;;;;;;;17.00;10.80;;;10.40;99.90;;;;;;4145339;28;20030;-78
2021/05/09 04:38:01;;;;;;;15.50;10.38;;;10.50;99.90;;;;;;4146584;28;20108;-79
2021/05/09 04:40:02;;;;;;;13.70;10.23;;;10.60;99.90;;;;;;4144440;28;20029;-78
2021/05/09 04:42:04;;;;;;;13.63;9.40;;;10.60;99.90;;;;;;4160423;28;20057;-79
2021/05/09 04:44:05;;;;;;;15.10;10.82;;;10.70;99.90;;;;;;4146272;28;20462;-78
2021/05/09 04:46:06;;;;;;;14.88;10.43;;;10.80;99.90;;;;;;4145357;28;20030;-78
2021/05/09 04:48:07;;;;;;;11.68;10.02;;;10.80;99.90;;;;;;4127575;28;20425;-78
2021/05/09 04:50:09;;;;;;;11.73;10.40;;;10.90;99.90;;;;;;4145042;28;20100;-78
2021/05/09 04:52:10;;;;;;;11.18;10.07;;;11.00;99.90;;;;;;4161456;28;20037;-79
2021/05/09 04:54:11;;;;;;;12.93;9.52;;;11.00;99.90;;;;;;4145422;28;20030;-79
2021/05/09 04:56:11;;;;;;;15.82;12.05;;;11.10;99.90;;;;;;4145311;28;20029;-78
2021/05/09 04:58:12;;;;;;;11.90;9.77;;;11.20;99.90;;;;;;4144659;28;20173;-78
2021/05/09 05:00:14;;;;;;;14.50;10.75;;;11.30;99.90;;;;;;4144597;28;20574;-79
2021/05/09 05:02:15;;;;;;;12.45;10.27;;;11.40;99.90;;;;;;4145206;28;20481;-79
2021/05/09 05:04:16;;;;;;;13.77;11.05;;;11.40;99.90;;;;;;4146106;28;20076;-79
2021/05/09 05:06:17;;;;;;;15.45;10.85;;;11.60;99.90;;;;;;4143324;28;20571;-79
2021/05/09 05:08:17;;;;;;;14.65;9.60;;;11.70;99.90;;;;;;4143666;28;20038;-78
2021/05/09 05:10:18;;;;;;;14.18;10.45;;;11.80;99.90;;;;;;4144041;28;20423;-78
2021/05/09 05:12:19;;;;;;;11.70;10.15;;;11.90;99.90;;;;;;4159841;28;20029;-78
2021/05/09 05:14:20;;;;;;;10.10;9.07;;;12.00;99.90;;;;;;4145289;28;20035;-78
2021/05/09 05:16:21;;;;;;;14.35;11.18;;;12.10;99.90;;;;;;4143958;28;20133;-79
2021/05/09 05:18:24;;;;;;;13.65;9.55;;;12.30;99.90;;;;;;4160300;28;20032;-78
2021/05/09 05:20:25;;;;;;;14.40;9.20;;;12.30;99.90;;;;;;4143737;28;20084;-78
2021/05/09 05:22:26;;;;;;;11.85;9.70;;;12.40;99.90;;;;;;4143437;28;20034;-77
2021/05/09 05:24:27;;;;;;;13.02;9.98;;;12.50;99.90;;;;;;4144641;28;20033;-77
2021/05/09 05:26:27;;;;;;;14.40;9.65;;;12.60;99.90;;;;;;4161178;28;20477;-77
2021/05/09 05:28:28;;;;;;;12.52;9.55;;;12.70;99.90;;;;;;4144579;28;20073;-79
2021/05/09 05:30:29;;;;;;;13.57;9.63;;;12.70;99.90;;;;;;4144833;28;20038;-77
2021/05/09 05:32:30;;;;;;;14.25;10.50;;;12.80;99.90;;;;;;4144125;28;20457;-77
2021/05/09 05:34:31;;;;;;;18.00;9.77;;;12.90;99.90;;;;;;4146376;28;20032;-78
2021/05/09 05:36:32;;;;;;;14.77;10.32;;;12.90;99.90;;;;;;4145016;28;20096;-78
2021/05/09 05:38:32;;;;;;;13.90;10.32;;;13.00;99.90;;;;;;4144981;28;20046;-78
2021/05/09 05:40:33;;;;;;;13.40;10.60;;;13.10;99.90;;;;;;4146072;28;20044;-77
2021/05/09 05:42:34;;;;;;;15.98;10.45;;;13.10;99.90;;;;;;4146572;28;20045;-77
2021/05/09 05:44:35;;;;;;;11.60;10.40;;;13.10;99.90;;;;;;4143634;28;20046;-78
2021/05/09 05:46:36;;;;;;;11.43;10.13;;;13.10;99.90;;;;;;4145121;28;20038;-78
2021/05/09 05:48:37;;;;;;;15.15;10.05;;;13.20;99.90;;;;;;4146526;28;20048;-78
2021/05/09 05:50:39;;;;;;;11.50;10.13;;;13.20;99.90;;;;;;4144735;28;20049;-77
2021/05/09 05:52:40;;;;;;;12.90;10.02;;;13.30;99.90;;;;;;4145442;28;20493;-78
2021/05/09 05:54:40;;;;;;;11.45;10.32;;;13.40;99.90;;;;;;4155786;28;20057;-76
2021/05/09 05:56:41;;;;;;;13.52;9.88;;;13.50;99.90;;;;;;4146501;28;20447;-77
2021/05/09 05:58:42;;;;;;;15.02;9.80;;;13.70;99.90;;;;;;4145708;28;20505;-77
2021/05/09 06:00:44;;;;;;;11.75;10.43;;;13.80;99.90;;;;;;4149032;28;20040;-78
2021/05/09 06:02:44;;;;;;;13.82;9.10;;;13.90;99.90;;;;;;4148481;28;20634;-78
2021/05/09 06:04:45;;;;;;;10.90;9.40;;;13.90;99.90;;;;;;4131656;28;20054;-77
2021/05/09 06:06:46;;;;;;;16.50;9.00;;;14.10;99.90;;;;;;4147826;28;20116;-78
2021/05/09 06:08:50;;;;;;;10.63;9.60;;;14.10;99.90;;;;;;4148035;28;20494;-79
2021/05/09 06:10:51;;;;;;;11.80;9.20;;;14.20;99.90;;;;;;4148990;28;20081;-78
2021/05/09 06:12:56;;;;;;;10.85;9.75;;;14.30;99.90;;;;;;4147630;28;20493;-77
2021/05/09 06:14:57;;;;;;;10.75;9.27;;;14.50;99.90;;;;;;4147434;28;20117;-78
2021/05/09 06:16:58;;;;;;;9.38;8.27;;;14.70;99.90;;;;;;4147794;28;20337;-78
2021/05/09 06:18:59;;;;;;;13.77;8.68;;;14.80;99.90;;;;;;4148060;28;20451;-76
2021/05/09 06:21:00;;;;;;;12.00;9.68;;;14.90;99.90;;;;;;4149642;28;20034;-77
2021/05/09 06:23:02;;;;;;;9.82;8.77;;;15.00;99.90;;;;;;4147666;28;20113;-77
2021/05/09 06:25:05;;;;;;;11.27;8.15;;;15.10;99.90;;;;;;4148019;28;20034;-78
2021/05/09 06:27:06;;;;;;;11.00;8.63;;;15.30;99.90;;;;;;4147739;28;20034;-78
2021/05/09 06:29:08;;;;;;;10.60;8.75;;;15.40;99.90;;;;;;4147586;28;20036;-78
2021/05/09 06:31:09;;;;;;;9.38;7.82;;;15.60;99.90;;;;;;4147243;28;20058;-78
2021/05/09 06:33:10;;;;;;;9.52;7.82;;;15.70;99.90;;;;;;4163737;28;20033;-78
2021/05/09 06:35:11;;;;;;;18.63;8.60;;;15.80;99.90;;;;;;4144603;28;20037;-78
2021/05/09 06:37:13;;;;;;;9.55;8.23;;;15.90;99.90;;;;;;4138150;28;20032;-78
2021/05/09 06:39:14;;;;;;;10.73;8.60;;;16.00;99.90;;;;;;4147928;28;20032;-78
2021/05/09 06:41:15;;;;;;;11.15;8.15;;;16.00;99.90;;;;;;4163724;28;20029;-78
2021/05/09 06:43:17;;;;;;;13.00;8.15;;;16.00;99.90;;;;;;4147416;28;20134;-78
2021/05/09 06:45:26;;;;;;;11.57;8.18;;;16.00;99.90;;;;;;4142225;28;20088;-78
2021/05/09 06:47:27;;;;;;;9.05;8.13;;;16.10;99.90;;;;;;4148207;28;20053;-78
2021/05/09 06:49:28;;;;;;;9.88;8.88;;;16.10;99.90;;;;;;4147664;28;20125;-78
2021/05/09 06:51:29;;;;;;;11.60;8.93;;;16.10;99.90;;;;;;4147791;28;20096;-78
2021/05/09 06:53:30;;;;;;;9.65;8.07;;;16.00;99.90;;;;;;4163861;28;20040;-78
2021/05/09 06:55:31;;;;;;;11.43;7.95;;;16.10;99.90;;;;;;4146946;28;20037;-78
2021/05/09 06:57:32;;;;;;;10.45;9.38;;;16.10;99.90;;;;;;4148556;28;20040;-78
2021/05/09 06:59:33;;;;;;;10.70;8.75;;;16.20;99.90;;;;;;4164552;28;20045;-78
2021/05/09 07:01:34;;;;;;;9.93;8.93;;;16.30;99.90;;;;;;4147835;28;20070;-78
2021/05/09 07:03:34;;;;;;;10.32;8.63;;;16.50;99.90;;;;;;4148731;28;20600;-79
2021/05/09 07:05:36;;;;;;;12.23;8.07;;;16.60;99.90;;;;;;4145859;28;20045;-77
2021/05/09 07:07:56;;;;;;;11.02;7.97;;;16.60;99.90;;;;;;4177142;28;20040;-77
2021/05/09 07:09:57;;;;;;;10.80;7.47;;;16.70;99.90;;;;;;4145375;28;20512;-78
2021/05/09 07:11:57;;;;;;;10.05;7.85;;;16.80;99.90;;;;;;4163255;28;20041;-79
2021/05/09 07:13:59;;;;;;;10.02;7.47;;;16.80;99.90;;;;;;4143758;28;20046;-78
2021/05/09 07:16:00;;;;;;;9.52;7.03;;;16.90;99.90;;;;;;4163659;28;20033;-77
2021/05/09 07:18:07;;;;;;;8.52;7.63;;;17.00;99.90;;;;;;4146318;28;20041;-76
2021/05/09 07:20:09;;;;;;;8.50;7.43;;;17.00;99.90;;;;;;4146067;28;20026;-77
2021/05/09 07:22:19;;;;;;;9.75;6.43;;;17.00;99.90;;;;;;4147555;28;20042;-77
2021/05/09 07:24:20;;;;;;;9.90;6.63;;;17.00;99.90;;;;;;4163318;28;20176;-78
2021/05/09 07:26:22;;;;;;;7.03;6.35;;;17.00;99.90;;;;;;4163857;28;20037;-78
2021/05/09 07:28:25;;;;;;;7.28;6.55;;;16.90;99.90;;;;;;4146911;28;20037;-78
2021/05/09 07:30:26;;;;;;;8.63;6.60;;;16.90;99.90;;;;;;4147495;28;20064;-77
2021/05/09 07:32:27;;;;;;;7.28;6.43;;;16.90;99.90;;;;;;4147782;28;20026;-78
2021/05/09 07:34:27;;;;;;;8.55;6.50;;;16.90;99.90;;;;;;4149140;28;20115;-78
2021/05/09 07:36:28;;;;;;;8.52;5.95;;;16.90;99.90;;;;;;4148313;28;20045;-78
2021/05/09 07:38:29;;;;;;;8.30;6.18;;;16.90;99.90;;;;;;4142739;28;20149;-78
2021/05/09 07:40:30;;;;;;;7.45;6.18;;;16.90;99.90;;;;;;4131795;28;20520;-78
2021/05/09 07:42:31;;;;;;;9.63;6.57;;;17.10;99.90;;;;;;4131012;28;20038;-79
2021/05/09 07:44:32;;;;;;;6.70;6.00;;;17.20;99.90;;;;;;4130592;28;20073;-79
2021/05/09 07:46:32;;;;;;;6.55;5.30;;;17.40;99.90;;;;;;4148686;28;20030;-79
2021/05/09 07:48:33;;;;;;;6.63;5.25;;;17.50;99.90;;;;;;4147918;28;20800;-79
2021/05/09 07:50:34;;;;;;;6.80;5.18;;;17.50;99.90;;;;;;4161994;28;20102;-79
2021/05/09 07:52:36;;;;;;;7.43;5.22;;;17.40;99.90;;;;;;4148094;28;20149;-79
2021/05/09 07:54:38;;;;;;;7.10;5.43;;;17.40;99.90;;;;;;4147920;28;20022;-80
2021/05/09 07:56:39;;;;;;;8.93;4.85;;;17.60;99.90;;;;;;4163033;28;20037;-78
2021/05/09 07:58:40;;;;;;;6.25;4.85;;;17.60;99.90;;;;;;4145514;28;20037;-79
2021/05/09 08:00:41;;;;;;;5.97;5.15;;;17.60;99.90;;;;;;4163689;28;20069;-79
2021/05/09 08:02:44;;;;;;;8.70;4.80;;;17.60;99.90;;;;;;4145669;28;20405;-79
2021/05/09 08:04:45;;;;;;;5.15;4.65;;;17.60;99.90;;;;;;4147404;28;20041;-78
2021/05/09 08:06:46;;;;;;;7.13;4.72;;;17.60;99.90;;;;;;4163733;28;20380;-79
2021/05/09 08:08:47;;;;;;;6.53;5.10;;;17.70;99.90;;;;;;4147372;28;20026;-79
2021/05/09 08:10:48;;;;;;;5.53;4.38;;;17.80;99.90;;;;;;4146489;28;20128;-78
2021/05/09 08:12:49;;;;;;;4.75;4.32;;;17.90;99.90;;;;;;4162058;28;20033;-80
2021/05/09 08:14:50;;;;;;;6.32;4.22;;;18.00;99.90;;;;;;4142067;28;20030;-80
2021/05/09 08:16:51;;;;;;;4.47;3.78;;;18.10;99.90;;;;;;4146169;28;20104;-79
2021/05/09 08:18:52;;;;;;;8.68;4.45;;;18.50;99.90;;;;;;4147170;28;20042;-77
2021/05/09 08:20:56;;;;;;;4.75;3.80;;;18.90;99.90;;;;;;4147047;28;20366;-80
2021/05/09 08:22:57;;;;;;;5.43;3.50;;;19.30;99.90;;;;;;4143882;28;20030;-78
2021/05/09 08:24:59;;;;;;;4.20;3.60;;;19.70;99.90;;;;;;4148123;28;20079;-79
2021/05/09 08:27:00;;;;;;;5.03;3.55;;;20.10;99.90;;;;;;4148857;28;20048;-79
2021/05/09 08:29:02;;;;;;;5.28;4.05;;;20.20;99.90;;;;;;4146681;28;20065;-78
2021/05/09 08:31:04;;;;;;;6.80;4.00;;;20.20;99.90;;;;;;4146274;28;20026;-78
2021/05/09 08:33:05;;;;;;;5.28;3.65;;;20.40;99.90;;;;;;4146863;28;20037;-78
2021/05/09 08:35:08;;;;;;;4.65;3.42;;;20.30;99.90;;;;;;4148364;28;20026;-78
2021/05/09 08:37:09;;;;;;;4.65;3.90;;;20.10;99.90;;;;;;4145398;28;20040;-77
2021/05/09 08:39:10;;;;;;;4.72;3.80;;;19.80;99.90;;;;;;4147303;28;20037;-78
2021/05/09 08:41:11;;;;;;;5.28;3.78;;;19.60;99.90;;;;;;4153884;28;20493;-78
2021/05/09 08:43:12;;;;;;;5.28;3.65;;;19.50;99.90;;;;;;4146114;28;20113;-78
2021/05/09 08:45:13;;;;;;;6.18;3.65;;;19.50;99.90;;;;;;4146149;28;20056;-79
2021/05/09 08:47:22;;;;;;;4.22;3.83;;;19.60;99.90;;;;;;4164745;28;20029;-79
2021/05/09 08:49:24;;;;;;;4.57;3.83;;;19.90;99.90;;;;;;4176324;28;20033;-79
2021/05/09 08:51:25;;;;;;;4.13;3.72;;;20.20;99.90;;;;;;4165469;28;20036;-78
2021/05/09 08:53:26;;;;;;;4.93;3.92;;;20.50;99.90;;;;;;4147577;28;20121;-78
2021/05/09 08:55:28;;;;;;;5.03;3.50;;;20.90;99.90;;;;;;4146345;28;20061;-79
2021/05/09 08:57:29;;;;;;;7.82;3.92;;;21.00;99.90;;;;;;4147306;28;20126;-77
2021/05/09 08:59:30;;;;;;;5.63;3.67;;;21.30;99.90;;;;;;4144211;28;20072;-77
2021/05/09 09:01:31;;;;;;;5.40;4.32;;;21.40;99.90;;;;;;4166936;28;20500;-78
2021/05/09 09:03:34;;;;;;;5.38;3.50;;;21.20;99.90;;;;;;4135449;28;20034;-78
2021/05/09 09:05:39;;;;;;;5.07;3.83;;;21.10;99.90;;;;;;4143595;28;20033;-77
2021/05/09 09:07:51;;;;;;;7.35;4.60;;;21.10;99.90;;;;;;4142765;28;20096;-77
2021/05/09 09:09:52;;;;;;;7.57;4.40;;;21.30;99.90;;;;;;4141930;28;20029;-78
2021/05/09 09:11:56;;;;;;;6.60;4.80;;;21.40;99.90;;;;;;4147037;28;20026;-79
2021/05/09 09:14:11;;;;;;;5.57;4.35;;;21.30;99.90;;;;;;4159904;28;20091;-78
2021/05/09 09:16:12;;;;;;;4.43;4.03;;;21.00;99.90;;;;;;4140206;28;20121;-78
2021/05/09 09:18:39;;;;;;;6.03;4.15;;;21.10;99.90;;;;;;4140801;28;20107;-79
2021/05/09 09:20:40;;;;;;;6.70;4.72;;;21.30;99.90;;;;;;4143238;28;20193;-78
2021/05/09 09:22:49;;;;;;;5.97;5.15;;;21.30;99.90;;;;;;4144634;28;20053;-75
2021/05/09 09:25:08;;;;;;;6.10;4.30;;;21.40;99.90;;;;;;4142340;28;20433;-77
2021/05/09 09:27:09;;;;;;;6.78;4.25;;;21.50;99.90;;;;;;4143224;28;20033;-80
2021/05/09 09:29:36;;;;;;;7.90;4.70;;;21.70;99.90;;;;;;4144434;28;20771;-79
2021/05/09 09:31:43;;;;;;;5.10;4.60;;;21.90;99.90;;;;;;4145083;28;20113;-78
2021/05/09 09:33:50;;;;;;;5.63;5.07;;;22.20;99.90;;;;;;4134390;28;20034;-78
2021/05/09 09:35:57;;;;;;;5.05;4.55;;;22.40;99.90;;;;;;4136934;28;20065;-78
2021/05/09 09:37:58;;;;;;;8.77;4.88;;;22.20;99.90;;;;;;4156969;28;20679;-80
2021/05/09 09:40:00;;;;;;;5.88;5.05;;;22.30;99.90;;;;;;4131431;28;20038;-77
2021/05/09 09:42:01;;;;;;;6.38;4.65;;;22.60;99.90;;;;;;4157863;28;20033;-77
2021/05/09 09:44:11;;;;;;;5.70;5.10;;;23.00;99.90;;;;;;4138466;28;20549;-78
2021/05/09 09:46:36;;;;;;;9.88;5.68;;;23.20;99.90;;;;;;4136038;28;20035;-78
2021/05/09 09:48:39;;;;;;;9.48;4.93;;;23.20;99.90;;;;;;4165416;28;20034;-77
2021/05/09 09:50:49;;;;;;;6.50;5.63;;;23.30;99.90;;;;;;4151467;28;20120;-77
2021/05/09 09:52:50;;;;;;;7.85;5.65;;;23.40;99.90;;;;;;4151680;28;20045;-77
2021/05/09 09:54:51;;;;;;;9.88;5.90;;;23.40;99.90;;;;;;4152855;28;20400;-78
2021/05/09 09:56:51;;;;;;;6.55;5.70;;;23.30;99.90;;;;;;4152138;28;20029;-77
2021/05/09 09:58:59;;;;;;;8.13;5.72;;;23.40;99.90;;;;;;4152734;28;20111;-77
2021/05/09 10:01:01;;;;;;;7.68;5.32;;;23.40;99.90;;;;;;4153074;28;20038;-78
2021/05/09 10:03:02;;;;;;;7.18;5.35;;;23.70;99.90;;;;;;4150343;28;20456;-78
2021/05/09 10:05:04;;;;;;;7.78;5.68;;;24.00;99.90;;;;;;4140716;28;20034;-77
2021/05/09 10:07:07;;;;;;;7.20;6.03;;;24.00;99.90;;;;;;4164142;28;20076;-78
2021/05/09 10:09:09;;;;;;;8.57;6.07;;;24.00;99.90;;;;;;4163591;28;20548;-79
2021/05/09 10:11:10;;;;;;;8.52;7.07;;;24.40;99.90;;;;;;4159835;28;20030;-78
2021/05/09 10:13:12;;;;;;;7.38;6.40;;;25.00;99.90;;;;;;4182943;28;20120;-78
2021/05/09 10:15:13;;;;;;;7.07;6.32;;;25.10;99.90;;;;;;4153549;28;20048;-78
2021/05/09 10:17:15;;;;;;;8.40;5.63;;;25.10;99.90;;;;;;4151353;28;20042;-78
2021/05/09 10:19:21;;;;;;;8.23;5.93;;;25.20;99.90;;;;;;4150285;28;20063;-79
2021/05/09 10:21:33;;;;;;;6.30;5.70;;;25.30;99.90;;;;;;4166869;28;20046;-78
2021/05/09 10:23:35;;;;;;;6.85;6.18;;;25.70;99.90;;;;;;4151455;28;20037;-79
2021/05/09 10:25:49;;;;;;;7.07;6.10;;;25.40;99.90;;;;;;4151382;28;20495;-78
2021/05/09 10:27:50;;;;;;;8.65;5.95;;;25.20;99.90;;;;;;4152581;28;20393;-79
2021/05/09 10:29:51;;;;;;;7.88;6.65;;;25.80;99.90;;;;;;4150443;28;20050;-79